sensor_id;sensor_type;location;lat;lon;timestamp;P1;durP1;ratioP1;P2;durP2;ratioP2
18659;SDS011;9459;50.254;19.014;2022-08-01T00:00:08;7.43;;;4.40;;
18659;SDS011;9459;50.254;19.014;2022-08-01T00:02:57;5.57;;;4.05;;
18659;SDS011;9459;50.254;19.014;2022-08-01T00:05:25;5.35;;;3.75;;
18659;SDS011;9459;50.254;19.014;2022-08-01T00:07:54;5.80;;;3.97;;
18659;SDS011;9459;50.254;19.014;2022-08-01T00:10:22;5.53;;;3.97;;
18659;SDS011;9459;50.254;19.014;2022-08-01T00:12:52;5.93;;;3.70;;
18659;SDS011;9459;50.254;19.014;2022-08-01T00:15:20;5.15;;;4.07;;
18659;SDS011;9459;50.254;19.014;2022-08-01T00:17:48;6.55;;;3.85;;
18659;SDS011;9459;50.254;19.014;2022-08-01T00:20:17;4.03;;;3.40;;
18659;SDS011;9459;50.254;19.014;2022-08-01T00:22:45;5.15;;;3.65;;
18659;SDS011;9459;50.254;19.014;2022-08-01T00:25:13;6.32;;;3.60;;
18659;SDS011;9459;50.254;19.014;2022-08-01T00:27:41;4.85;;;3.90;;
18659;SDS011;9459;50.254;19.014;2022-08-01T00:30:11;6.28;;;3.00;;
18659;SDS011;9459;50.254;19.014;2022-08-01T00:32:40;4.57;;;3.17;;
18659;SDS011;9459;50.254;19.014;2022-08-01T00:35:09;3.58;;;3.20;;
18659;SDS011;9459;50.254;19.014;2022-08-01T00:37:37;3.33;;;2.60;;
18659;SDS011;9459;50.254;19.014;2022-08-01T00:40:06;2.75;;;2.35;;
18659;SDS011;9459;50.254;19.014;2022-08-01T00:42:35;2.80;;;2.38;;
18659;SDS011;9459;50.254;19.014;2022-08-01T00:45:09;2.35;;;2.15;;
18659;SDS011;9459;50.254;19.014;2022-08-01T00:47:39;2.97;;;2.38;;
18659;SDS011;9459;50.254;19.014;2022-08-01T00:50:08;3.03;;;2.60;;
18659;SDS011;9459;50.254;19.014;2022-08-01T00:52:37;2.78;;;2.47;;
18659;SDS011;9459;50.254;19.014;2022-08-01T00:55:07;3.47;;;2.63;;
18659;SDS011;9459;50.254;19.014;2022-08-01T00:57:40;6.65;;;3.03;;
18659;SDS011;9459;50.254;19.014;2022-08-01T01:00:29;3.60;;;3.00;;
18659;SDS011;9459;50.254;19.014;2022-08-01T01:03:19;4.15;;;3.30;;
18659;SDS011;9459;50.254;19.014;2022-08-01T01:06:06;4.60;;;3.08;;
18659;SDS011;9459;50.254;19.014;2022-08-01T01:08:42;5.80;;;3.22;;
18659;SDS011;9459;50.254;19.014;2022-08-01T01:11:13;3.67;;;3.13;;
18659;SDS011;9459;50.254;19.014;2022-08-01T01:13:45;4.55;;;3.47;;
18659;SDS011;9459;50.254;19.014;2022-08-01T01:16:17;4.30;;;3.67;;
18659;SDS011;9459;50.254;19.014;2022-08-01T01:18:48;4.55;;;3.70;;
18659;SDS011;9459;50.254;19.014;2022-08-01T01:21:38;4.90;;;3.53;;
18659;SDS011;9459;50.254;19.014;2022-08-01T01:24:21;6.18;;;4.22;;
18659;SDS011;9459;50.254;19.014;2022-08-01T01:27:05;3.90;;;3.47;;
18659;SDS011;9459;50.254;19.014;2022-08-01T01:29:39;5.47;;;4.28;;
18659;SDS011;9459;50.254;19.014;2022-08-01T01:32:28;4.25;;;3.85;;
18659;SDS011;9459;50.254;19.014;2022-08-01T01:35:02;3.65;;;2.63;;
18659;SDS011;9459;50.254;19.014;2022-08-01T01:37:34;3.42;;;3.13;;
18659;SDS011;9459;50.254;19.014;2022-08-01T01:40:03;3.65;;;2.50;;
18659;SDS011;9459;50.254;19.014;2022-08-01T01:42:33;2.15;;;1.95;;
18659;SDS011;9459;50.254;19.014;2022-08-01T01:45:04;3.30;;;2.20;;
18659;SDS011;9459;50.254;19.014;2022-08-01T01:50:02;4.18;;;2.60;;
18659;SDS011;9459;50.254;19.014;2022-08-01T01:52:31;2.88;;;2.67;;
18659;SDS011;9459;50.254;19.014;2022-08-01T01:54:59;2.92;;;2.58;;
18659;SDS011;9459;50.254;19.014;2022-08-01T01:57:29;3.53;;;3.08;;
18659;SDS011;9459;50.254;19.014;2022-08-01T01:59:58;2.50;;;2.30;;
18659;SDS011;9459;50.254;19.014;2022-08-01T02:02:28;4.53;;;3.88;;
18659;SDS011;9459;50.254;19.014;2022-08-01T02:04:56;5.43;;;3.90;;
18659;SDS011;9459;50.254;19.014;2022-08-01T02:07:26;16.48;;;7.78;;
18659;SDS011;9459;50.254;19.014;2022-08-01T02:09:55;9.80;;;6.40;;
18659;SDS011;9459;50.254;19.014;2022-08-01T02:12:24;17.92;;;10.27;;
18659;SDS011;9459;50.254;19.014;2022-08-01T02:14:52;20.55;;;11.05;;
18659;SDS011;9459;50.254;19.014;2022-08-01T02:17:22;31.63;;;17.33;;
18659;SDS011;9459;50.254;19.014;2022-08-01T02:19:53;14.63;;;9.13;;
18659;SDS011;9459;50.254;19.014;2022-08-01T02:22:23;8.00;;;5.88;;
18659;SDS011;9459;50.254;19.014;2022-08-01T02:24:54;17.05;;;10.52;;
18659;SDS011;9459;50.254;19.014;2022-08-01T02:27:28;22.48;;;13.13;;
18659;SDS011;9459;50.254;19.014;2022-08-01T02:30:01;18.73;;;11.32;;
18659;SDS011;9459;50.254;19.014;2022-08-01T02:32:34;15.13;;;8.82;;
18659;SDS011;9459;50.254;19.014;2022-08-01T02:35:07;14.82;;;8.55;;
18659;SDS011;9459;50.254;19.014;2022-08-01T02:37:38;11.07;;;7.60;;
18659;SDS011;9459;50.254;19.014;2022-08-01T02:40:12;12.68;;;7.95;;
18659;SDS011;9459;50.254;19.014;2022-08-01T02:42:41;10.05;;;6.60;;
18659;SDS011;9459;50.254;19.014;2022-08-01T02:45:11;11.07;;;6.60;;
18659;SDS011;9459;50.254;19.014;2022-08-01T02:47:40;9.30;;;7.10;;
18659;SDS011;9459;50.254;19.014;2022-08-01T02:50:12;8.77;;;6.20;;
18659;SDS011;9459;50.254;19.014;2022-08-01T02:52:43;7.47;;;5.05;;
18659;SDS011;9459;50.254;19.014;2022-08-01T02:55:13;7.15;;;5.05;;
18659;SDS011;9459;50.254;19.014;2022-08-01T02:57:42;4.70;;;4.05;;
18659;SDS011;9459;50.254;19.014;2022-08-01T03:00:22;4.63;;;3.43;;
18659;SDS011;9459;50.254;19.014;2022-08-01T03:02:52;4.45;;;3.35;;
18659;SDS011;9459;50.254;19.014;2022-08-01T03:05:22;7.88;;;5.32;;
18659;SDS011;9459;50.254;19.014;2022-08-01T03:07:54;5.53;;;4.00;;
18659;SDS011;9459;50.254;19.014;2022-08-01T03:10:29;5.82;;;4.40;;
18659;SDS011;9459;50.254;19.014;2022-08-01T03:12:59;7.45;;;4.40;;
18659;SDS011;9459;50.254;19.014;2022-08-01T03:15:28;5.30;;;4.28;;
18659;SDS011;9459;50.254;19.014;2022-08-01T03:17:57;5.30;;;3.63;;
18659;SDS011;9459;50.254;19.014;2022-08-01T03:20:29;8.40;;;4.50;;
18659;SDS011;9459;50.254;19.014;2022-08-01T03:22:59;6.22;;;4.60;;
18659;SDS011;9459;50.254;19.014;2022-08-01T03:25:27;6.47;;;4.75;;
18659;SDS011;9459;50.254;19.014;2022-08-01T03:27:58;6.25;;;5.07;;
18659;SDS011;9459;50.254;19.014;2022-08-01T03:30:27;8.07;;;6.27;;
18659;SDS011;9459;50.254;19.014;2022-08-01T03:32:56;6.20;;;5.28;;
18659;SDS011;9459;50.254;19.014;2022-08-01T03:35:26;9.15;;;6.15;;
18659;SDS011;9459;50.254;19.014;2022-08-01T03:37:58;7.00;;;5.97;;
18659;SDS011;9459;50.254;19.014;2022-08-01T03:40:43;7.97;;;7.15;;
18659;SDS011;9459;50.254;19.014;2022-08-01T03:43:16;8.10;;;7.30;;
18659;SDS011;9459;50.254;19.014;2022-08-01T03:45:48;10.05;;;7.53;;
18659;SDS011;9459;50.254;19.014;2022-08-01T03:50:50;8.80;;;7.90;;
18659;SDS011;9459;50.254;19.014;2022-08-01T03:53:20;8.55;;;7.53;;
18659;SDS011;9459;50.254;19.014;2022-08-01T03:58:18;10.02;;;7.68;;
18659;SDS011;9459;50.254;19.014;2022-08-01T04:00:47;10.98;;;8.02;;
18659;SDS011;9459;50.254;19.014;2022-08-01T04:03:16;11.88;;;8.27;;
18659;SDS011;9459;50.254;19.014;2022-08-01T04:05:44;9.90;;;8.60;;
18659;SDS011;9459;50.254;19.014;2022-08-01T04:08:14;10.27;;;7.93;;
18659;SDS011;9459;50.254;19.014;2022-08-01T04:10:42;10.55;;;7.05;;
18659;SDS011;9459;50.254;19.014;2022-08-01T04:13:10;10.52;;;7.43;;
18659;SDS011;9459;50.254;19.014;2022-08-01T04:15:39;9.82;;;7.28;;
18659;SDS011;9459;50.254;19.014;2022-08-01T04:18:07;10.30;;;8.23;;
18659;SDS011;9459;50.254;19.014;2022-08-01T04:20:36;13.30;;;8.63;;
18659;SDS011;9459;50.254;19.014;2022-08-01T04:23:04;8.57;;;6.93;;
18659;SDS011;9459;50.254;19.014;2022-08-01T04:25:34;10.02;;;7.20;;
18659;SDS011;9459;50.254;19.014;2022-08-01T04:28:06;8.02;;;6.18;;
18659;SDS011;9459;50.254;19.014;2022-08-01T04:30:37;12.43;;;8.60;;
18659;SDS011;9459;50.254;19.014;2022-08-01T04:33:06;17.92;;;11.93;;
18659;SDS011;9459;50.254;19.014;2022-08-01T04:35:36;40.00;;;22.50;;
18659;SDS011;9459;50.254;19.014;2022-08-01T04:38:27;35.33;;;18.95;;
18659;SDS011;9459;50.254;19.014;2022-08-01T04:40:58;31.40;;;17.67;;
18659;SDS011;9459;50.254;19.014;2022-08-01T04:43:35;26.40;;;15.65;;
18659;SDS011;9459;50.254;19.014;2022-08-01T04:46:03;23.50;;;14.93;;
18659;SDS011;9459;50.254;19.014;2022-08-01T04:48:34;20.73;;;12.30;;
18659;SDS011;9459;50.254;19.014;2022-08-01T04:51:11;16.80;;;10.45;;
18659;SDS011;9459;50.254;19.014;2022-08-01T04:53:42;16.92;;;9.93;;
18659;SDS011;9459;50.254;19.014;2022-08-01T04:56:12;15.00;;;10.27;;
18659;SDS011;9459;50.254;19.014;2022-08-01T04:58:40;10.93;;;8.88;;
18659;SDS011;9459;50.254;19.014;2022-08-01T05:01:09;10.30;;;7.50;;
18659;SDS011;9459;50.254;19.014;2022-08-01T05:03:38;8.10;;;6.85;;
18659;SDS011;9459;50.254;19.014;2022-08-01T05:06:07;7.90;;;7.05;;
18659;SDS011;9459;50.254;19.014;2022-08-01T05:08:35;8.07;;;6.70;;
18659;SDS011;9459;50.254;19.014;2022-08-01T05:11:04;10.90;;;6.75;;
18659;SDS011;9459;50.254;19.014;2022-08-01T05:13:33;8.63;;;6.47;;
18659;SDS011;9459;50.254;19.014;2022-08-01T05:16:02;8.07;;;6.57;;
18659;SDS011;9459;50.254;19.014;2022-08-01T05:18:31;7.47;;;5.90;;
18659;SDS011;9459;50.254;19.014;2022-08-01T05:21:00;10.65;;;6.57;;
18659;SDS011;9459;50.254;19.014;2022-08-01T05:23:28;9.80;;;5.80;;
18659;SDS011;9459;50.254;19.014;2022-08-01T05:26:09;5.72;;;4.40;;
18659;SDS011;9459;50.254;19.014;2022-08-01T05:28:41;7.32;;;5.07;;
18659;SDS011;9459;50.254;19.014;2022-08-01T05:31:10;9.07;;;5.40;;
18659;SDS011;9459;50.254;19.014;2022-08-01T05:33:38;6.40;;;5.70;;
18659;SDS011;9459;50.254;19.014;2022-08-01T05:36:07;8.25;;;4.72;;
18659;SDS011;9459;50.254;19.014;2022-08-01T05:38:35;6.90;;;5.13;;
18659;SDS011;9459;50.254;19.014;2022-08-01T05:41:03;6.55;;;4.82;;
18659;SDS011;9459;50.254;19.014;2022-08-01T05:43:32;6.95;;;4.80;;
18659;SDS011;9459;50.254;19.014;2022-08-01T05:46:02;6.18;;;4.82;;
18659;SDS011;9459;50.254;19.014;2022-08-01T05:48:30;6.60;;;4.22;;
18659;SDS011;9459;50.254;19.014;2022-08-01T05:50:58;3.63;;;3.20;;
18659;SDS011;9459;50.254;19.014;2022-08-01T05:53:26;5.82;;;3.72;;
18659;SDS011;9459;50.254;19.014;2022-08-01T05:55:55;4.68;;;3.65;;
18659;SDS011;9459;50.254;19.014;2022-08-01T05:58:23;6.25;;;3.67;;
18659;SDS011;9459;50.254;19.014;2022-08-01T06:00:51;4.57;;;3.55;;
18659;SDS011;9459;50.254;19.014;2022-08-01T06:03:21;4.45;;;3.25;;
18659;SDS011;9459;50.254;19.014;2022-08-01T06:05:49;4.30;;;3.05;;
18659;SDS011;9459;50.254;19.014;2022-08-01T06:08:17;3.72;;;2.67;;
18659;SDS011;9459;50.254;19.014;2022-08-01T06:10:45;6.18;;;3.08;;
18659;SDS011;9459;50.254;19.014;2022-08-01T06:13:13;4.75;;;3.00;;
18659;SDS011;9459;50.254;19.014;2022-08-01T06:15:42;3.97;;;3.17;;
18659;SDS011;9459;50.254;19.014;2022-08-01T06:18:10;5.53;;;3.65;;
18659;SDS011;9459;50.254;19.014;2022-08-01T06:20:40;5.03;;;3.13;;
18659;SDS011;9459;50.254;19.014;2022-08-01T06:23:08;4.43;;;3.08;;
18659;SDS011;9459;50.254;19.014;2022-08-01T06:25:56;4.80;;;3.22;;
18659;SDS011;9459;50.254;19.014;2022-08-01T06:28:26;5.38;;;3.20;;
18659;SDS011;9459;50.254;19.014;2022-08-01T06:30:55;4.35;;;3.03;;
18659;SDS011;9459;50.254;19.014;2022-08-01T06:33:25;4.80;;;3.55;;
18659;SDS011;9459;50.254;19.014;2022-08-01T06:35:55;3.83;;;3.00;;
18659;SDS011;9459;50.254;19.014;2022-08-01T06:38:24;6.25;;;3.42;;
18659;SDS011;9459;50.254;19.014;2022-08-01T06:40:52;4.45;;;2.70;;
18659;SDS011;9459;50.254;19.014;2022-08-01T06:43:22;3.20;;;2.60;;
18659;SDS011;9459;50.254;19.014;2022-08-01T06:45:50;3.30;;;2.85;;
18659;SDS011;9459;50.254;19.014;2022-08-01T06:48:18;4.28;;;3.05;;
18659;SDS011;9459;50.254;19.014;2022-08-01T06:50:46;4.10;;;2.72;;
18659;SDS011;9459;50.254;19.014;2022-08-01T06:53:16;5.30;;;2.88;;
18659;SDS011;9459;50.254;19.014;2022-08-01T06:55:44;5.07;;;3.35;;
18659;SDS011;9459;50.254;19.014;2022-08-01T06:58:13;4.22;;;2.45;;
18659;SDS011;9459;50.254;19.014;2022-08-01T07:00:41;5.15;;;3.15;;
18659;SDS011;9459;50.254;19.014;2022-08-01T07:03:10;3.85;;;2.47;;
18659;SDS011;9459;50.254;19.014;2022-08-01T07:05:38;3.78;;;2.30;;
18659;SDS011;9459;50.254;19.014;2022-08-01T07:08:06;3.30;;;2.67;;
18659;SDS011;9459;50.254;19.014;2022-08-01T07:10:35;4.05;;;2.38;;
18659;SDS011;9459;50.254;19.014;2022-08-01T07:13:04;3.45;;;2.78;;
18659;SDS011;9459;50.254;19.014;2022-08-01T07:15:32;4.90;;;2.20;;
18659;SDS011;9459;50.254;19.014;2022-08-01T07:18:00;3.85;;;2.67;;
18659;SDS011;9459;50.254;19.014;2022-08-01T07:20:30;3.78;;;2.03;;
18659;SDS011;9459;50.254;19.014;2022-08-01T07:23:15;3.65;;;2.05;;
18659;SDS011;9459;50.254;19.014;2022-08-01T07:25:49;4.53;;;2.63;;
18659;SDS011;9459;50.254;19.014;2022-08-01T07:28:23;2.80;;;1.98;;
18659;SDS011;9459;50.254;19.014;2022-08-01T07:30:52;3.75;;;2.60;;
18659;SDS011;9459;50.254;19.014;2022-08-01T07:33:20;2.58;;;2.13;;
18659;SDS011;9459;50.254;19.014;2022-08-01T07:35:48;3.17;;;2.03;;
18659;SDS011;9459;50.254;19.014;2022-08-01T07:38:17;2.72;;;1.75;;
18659;SDS011;9459;50.254;19.014;2022-08-01T07:40:45;5.93;;;2.83;;
18659;SDS011;9459;50.254;19.014;2022-08-01T07:43:15;3.45;;;2.00;;
18659;SDS011;9459;50.254;19.014;2022-08-01T07:45:43;5.13;;;2.28;;
18659;SDS011;9459;50.254;19.014;2022-08-01T07:48:12;3.95;;;2.03;;
18659;SDS011;9459;50.254;19.014;2022-08-01T07:50:42;4.38;;;1.60;;
18659;SDS011;9459;50.254;19.014;2022-08-01T07:53:12;2.10;;;1.75;;
18659;SDS011;9459;50.254;19.014;2022-08-01T07:55:41;2.97;;;1.75;;
18659;SDS011;9459;50.254;19.014;2022-08-01T07:58:11;3.10;;;1.70;;
18659;SDS011;9459;50.254;19.014;2022-08-01T08:00:41;4.80;;;1.70;;
18659;SDS011;9459;50.254;19.014;2022-08-01T08:03:10;2.17;;;1.38;;
18659;SDS011;9459;50.254;19.014;2022-08-01T08:05:38;3.20;;;1.42;;
18659;SDS011;9459;50.254;19.014;2022-08-01T08:08:26;2.38;;;1.50;;
18659;SDS011;9459;50.254;19.014;2022-08-01T08:10:55;3.13;;;1.57;;
18659;SDS011;9459;50.254;19.014;2022-08-01T08:13:23;3.00;;;1.60;;
18659;SDS011;9459;50.254;19.014;2022-08-01T08:15:53;2.13;;;1.40;;
18659;SDS011;9459;50.254;19.014;2022-08-01T08:18:23;2.50;;;1.30;;
18659;SDS011;9459;50.254;19.014;2022-08-01T08:20:53;3.00;;;1.80;;
18659;SDS011;9459;50.254;19.014;2022-08-01T08:23:21;1.38;;;1.20;;
18659;SDS011;9459;50.254;19.014;2022-08-01T08:26:09;2.65;;;1.50;;
18659;SDS011;9459;50.254;19.014;2022-08-01T08:28:38;3.00;;;1.42;;
18659;SDS011;9459;50.254;19.014;2022-08-01T08:31:07;2.58;;;2.08;;
18659;SDS011;9459;50.254;19.014;2022-08-01T08:33:56;1.90;;;1.30;;
18659;SDS011;9459;50.254;19.014;2022-08-01T08:36:24;2.25;;;1.58;;
18659;SDS011;9459;50.254;19.014;2022-08-01T08:38:57;1.65;;;1.40;;
18659;SDS011;9459;50.254;19.014;2022-08-01T08:41:28;3.33;;;1.50;;
18659;SDS011;9459;50.254;19.014;2022-08-01T08:44:04;4.00;;;1.67;;
18659;SDS011;9459;50.254;19.014;2022-08-01T08:46:40;2.33;;;1.63;;
18659;SDS011;9459;50.254;19.014;2022-08-01T08:49:11;3.75;;;1.45;;
18659;SDS011;9459;50.254;19.014;2022-08-01T08:51:41;2.60;;;1.40;;
18659;SDS011;9459;50.254;19.014;2022-08-01T08:54:10;1.60;;;1.33;;
18659;SDS011;9459;50.254;19.014;2022-08-01T08:56:39;3.63;;;1.65;;
18659;SDS011;9459;50.254;19.014;2022-08-01T08:59:08;2.55;;;1.50;;
18659;SDS011;9459;50.254;19.014;2022-08-01T09:01:36;2.70;;;1.45;;
18659;SDS011;9459;50.254;19.014;2022-08-01T09:04:06;4.82;;;1.70;;
18659;SDS011;9459;50.254;19.014;2022-08-01T09:06:34;4.70;;;1.70;;
18659;SDS011;9459;50.254;19.014;2022-08-01T09:09:02;2.47;;;1.55;;
18659;SDS011;9459;50.254;19.014;2022-08-01T09:11:31;2.38;;;1.70;;
18659;SDS011;9459;50.254;19.014;2022-08-01T09:14:03;3.67;;;1.70;;
18659;SDS011;9459;50.254;19.014;2022-08-01T09:16:39;2.78;;;1.65;;
18659;SDS011;9459;50.254;19.014;2022-08-01T09:19:16;2.95;;;1.90;;
18659;SDS011;9459;50.254;19.014;2022-08-01T09:22:06;3.58;;;2.03;;
18659;SDS011;9459;50.254;19.014;2022-08-01T09:24:36;3.13;;;1.80;;
18659;SDS011;9459;50.254;19.014;2022-08-01T09:27:15;4.85;;;2.00;;
18659;SDS011;9459;50.254;19.014;2022-08-01T09:29:47;2.50;;;1.80;;
18659;SDS011;9459;50.254;19.014;2022-08-01T09:32:28;2.45;;;1.77;;
18659;SDS011;9459;50.254;19.014;2022-08-01T09:35:24;3.13;;;1.70;;
18659;SDS011;9459;50.254;19.014;2022-08-01T09:38:11;4.07;;;1.80;;
18659;SDS011;9459;50.254;19.014;2022-08-01T09:40:45;3.47;;;2.25;;
18659;SDS011;9459;50.254;19.014;2022-08-01T09:43:17;3.35;;;1.77;;
18659;SDS011;9459;50.254;19.014;2022-08-01T09:45:46;3.40;;;1.70;;
18659;SDS011;9459;50.254;19.014;2022-08-01T09:48:19;3.17;;;1.80;;
18659;SDS011;9459;50.254;19.014;2022-08-01T09:50:56;2.35;;;1.48;;
18659;SDS011;9459;50.254;19.014;2022-08-01T09:53:46;7.20;;;2.20;;
18659;SDS011;9459;50.254;19.014;2022-08-01T09:56:18;3.85;;;2.05;;
18659;SDS011;9459;50.254;19.014;2022-08-01T09:58:51;3.17;;;1.70;;
18659;SDS011;9459;50.254;19.014;2022-08-01T10:01:40;4.28;;;2.05;;
18659;SDS011;9459;50.254;19.014;2022-08-01T10:04:10;4.43;;;1.92;;
18659;SDS011;9459;50.254;19.014;2022-08-01T10:06:43;2.33;;;1.92;;
18659;SDS011;9459;50.254;19.014;2022-08-01T10:09:12;3.60;;;2.25;;
18659;SDS011;9459;50.254;19.014;2022-08-01T10:11:42;6.60;;;2.30;;
18659;SDS011;9459;50.254;19.014;2022-08-01T10:14:11;3.65;;;2.60;;
18659;SDS011;9459;50.254;19.014;2022-08-01T10:16:44;3.47;;;2.47;;
18659;SDS011;9459;50.254;19.014;2022-08-01T10:19:31;3.50;;;2.33;;
18659;SDS011;9459;50.254;19.014;2022-08-01T10:22:01;5.68;;;2.30;;
18659;SDS011;9459;50.254;19.014;2022-08-01T10:24:34;4.20;;;2.28;;
18659;SDS011;9459;50.254;19.014;2022-08-01T10:27:05;2.20;;;2.00;;
18659;SDS011;9459;50.254;19.014;2022-08-01T10:29:40;2.63;;;2.08;;
18659;SDS011;9459;50.254;19.014;2022-08-01T10:32:30;3.17;;;2.22;;
18659;SDS011;9459;50.254;19.014;2022-08-01T10:34:58;3.17;;;2.10;;
18659;SDS011;9459;50.254;19.014;2022-08-01T10:37:34;3.28;;;2.17;;
18659;SDS011;9459;50.254;19.014;2022-08-01T10:40:18;3.55;;;2.08;;
18659;SDS011;9459;50.254;19.014;2022-08-01T10:42:57;4.03;;;2.30;;
18659;SDS011;9459;50.254;19.014;2022-08-01T10:45:25;4.10;;;2.53;;
18659;SDS011;9459;50.254;19.014;2022-08-01T10:47:57;2.85;;;2.20;;
18659;SDS011;9459;50.254;19.014;2022-08-01T10:50:29;3.40;;;2.28;;
18659;SDS011;9459;50.254;19.014;2022-08-01T10:53:07;2.60;;;2.15;;
18659;SDS011;9459;50.254;19.014;2022-08-01T10:55:46;3.33;;;2.47;;
18659;SDS011;9459;50.254;19.014;2022-08-01T10:58:24;2.80;;;2.00;;
18659;SDS011;9459;50.254;19.014;2022-08-01T11:01:12;4.28;;;2.65;;
18659;SDS011;9459;50.254;19.014;2022-08-01T11:04:05;2.95;;;2.22;;
18659;SDS011;9459;50.254;19.014;2022-08-01T11:06:51;2.58;;;2.38;;
18659;SDS011;9459;50.254;19.014;2022-08-01T11:09:27;4.80;;;2.35;;
18659;SDS011;9459;50.254;19.014;2022-08-01T11:12:04;3.45;;;2.35;;
18659;SDS011;9459;50.254;19.014;2022-08-01T11:17:57;3.55;;;2.20;;
18659;SDS011;9459;50.254;19.014;2022-08-01T11:20:28;2.80;;;2.30;;
18659;SDS011;9459;50.254;19.014;2022-08-01T11:29:15;3.88;;;2.63;;
18659;SDS011;9459;50.254;19.014;2022-08-01T11:31:48;9.30;;;2.95;;
18659;SDS011;9459;50.254;19.014;2022-08-01T11:36:47;3.38;;;2.45;;
18659;SDS011;9459;50.254;19.014;2022-08-01T11:39:25;6.38;;;2.88;;
18659;SDS011;9459;50.254;19.014;2022-08-01T11:44:49;5.32;;;2.88;;
18659;SDS011;9459;50.254;19.014;2022-08-01T11:47:18;5.22;;;2.80;;
18659;SDS011;9459;50.254;19.014;2022-08-01T11:49:47;3.63;;;2.83;;
18659;SDS011;9459;50.254;19.014;2022-08-01T11:52:25;3.67;;;3.00;;
18659;SDS011;9459;50.254;19.014;2022-08-01T11:54:55;4.32;;;3.25;;
18659;SDS011;9459;50.254;19.014;2022-08-01T11:57:27;7.53;;;3.33;;
18659;SDS011;9459;50.254;19.014;2022-08-01T12:00:03;6.18;;;3.22;;
18659;SDS011;9459;50.254;19.014;2022-08-01T12:02:34;5.45;;;3.17;;
18659;SDS011;9459;50.254;19.014;2022-08-01T12:05:04;6.55;;;2.90;;
18659;SDS011;9459;50.254;19.014;2022-08-01T12:07:38;6.18;;;3.08;;
18659;SDS011;9459;50.254;19.014;2022-08-01T12:10:09;5.30;;;2.97;;
18659;SDS011;9459;50.254;19.014;2022-08-01T12:12:43;2.85;;;2.55;;
18659;SDS011;9459;50.254;19.014;2022-08-01T12:15:12;4.28;;;2.78;;
18659;SDS011;9459;50.254;19.014;2022-08-01T12:17:41;4.30;;;2.83;;
18659;SDS011;9459;50.254;19.014;2022-08-01T12:20:25;4.55;;;3.00;;
18659;SDS011;9459;50.254;19.014;2022-08-01T12:22:58;5.82;;;2.50;;
18659;SDS011;9459;50.254;19.014;2022-08-01T12:25:27;3.07;;;2.40;;
18659;SDS011;9459;50.254;19.014;2022-08-01T12:27:59;3.28;;;2.55;;
18659;SDS011;9459;50.254;19.014;2022-08-01T12:30:28;2.92;;;2.22;;
18659;SDS011;9459;50.254;19.014;2022-08-01T12:32:58;3.90;;;2.15;;
18659;SDS011;9459;50.254;19.014;2022-08-01T12:35:27;3.85;;;2.30;;
18659;SDS011;9459;50.254;19.014;2022-08-01T12:37:57;3.55;;;2.35;;
18659;SDS011;9459;50.254;19.014;2022-08-01T12:40:27;3.00;;;2.05;;
18659;SDS011;9459;50.254;19.014;2022-08-01T12:42:58;3.30;;;1.95;;
18659;SDS011;9459;50.254;19.014;2022-08-01T12:45:30;3.00;;;2.17;;
18659;SDS011;9459;50.254;19.014;2022-08-01T12:48:00;2.80;;;1.95;;
18659;SDS011;9459;50.254;19.014;2022-08-01T12:50:29;2.65;;;1.95;;
18659;SDS011;9459;50.254;19.014;2022-08-01T12:52:59;4.18;;;1.70;;
18659;SDS011;9459;50.254;19.014;2022-08-01T12:55:27;2.47;;;1.77;;
18659;SDS011;9459;50.254;19.014;2022-08-01T12:58:06;2.67;;;2.00;;
18659;SDS011;9459;50.254;19.014;2022-08-01T13:00:42;2.53;;;1.98;;
18659;SDS011;9459;50.254;19.014;2022-08-01T13:03:12;3.47;;;2.20;;
18659;SDS011;9459;50.254;19.014;2022-08-01T13:05:42;2.53;;;2.20;;
18659;SDS011;9459;50.254;19.014;2022-08-01T13:10:40;3.85;;;2.10;;
18659;SDS011;9459;50.254;19.014;2022-08-01T13:13:10;2.72;;;2.28;;
18659;SDS011;9459;50.254;19.014;2022-08-01T13:16:02;3.60;;;1.90;;
18659;SDS011;9459;50.254;19.014;2022-08-01T13:18:32;2.58;;;1.83;;
18659;SDS011;9459;50.254;19.014;2022-08-01T13:21:07;4.85;;;1.70;;
18659;SDS011;9459;50.254;19.014;2022-08-01T13:23:37;3.67;;;1.85;;
18659;SDS011;9459;50.254;19.014;2022-08-01T13:29:11;2.13;;;1.60;;
18659;SDS011;9459;50.254;19.014;2022-08-01T13:31:40;2.97;;;1.83;;
18659;SDS011;9459;50.254;19.014;2022-08-01T13:34:09;2.88;;;1.90;;
18659;SDS011;9459;50.254;19.014;2022-08-01T13:36:38;2.50;;;1.80;;
18659;SDS011;9459;50.254;19.014;2022-08-01T13:39:15;3.95;;;2.03;;
18659;SDS011;9459;50.254;19.014;2022-08-01T13:42:00;3.05;;;2.05;;
18659;SDS011;9459;50.254;19.014;2022-08-01T13:44:31;2.15;;;1.73;;
18659;SDS011;9459;50.254;19.014;2022-08-01T13:46:59;4.53;;;2.30;;
18659;SDS011;9459;50.254;19.014;2022-08-01T13:52:08;3.13;;;2.15;;
18659;SDS011;9459;50.254;19.014;2022-08-01T13:54:36;3.97;;;2.60;;
18659;SDS011;9459;50.254;19.014;2022-08-01T13:57:05;4.80;;;2.28;;
18659;SDS011;9459;50.254;19.014;2022-08-01T13:59:34;4.05;;;2.20;;
18659;SDS011;9459;50.254;19.014;2022-08-01T14:02:03;3.88;;;1.98;;
18659;SDS011;9459;50.254;19.014;2022-08-01T14:04:32;3.08;;;2.20;;
18659;SDS011;9459;50.254;19.014;2022-08-01T14:07:00;2.70;;;2.10;;
18659;SDS011;9459;50.254;19.014;2022-08-01T14:09:37;2.97;;;2.20;;
18659;SDS011;9459;50.254;19.014;2022-08-01T14:12:25;3.03;;;1.75;;
18659;SDS011;9459;50.254;19.014;2022-08-01T14:14:55;3.17;;;1.80;;
18659;SDS011;9459;50.254;19.014;2022-08-01T14:17:24;2.70;;;2.40;;
18659;SDS011;9459;50.254;19.014;2022-08-01T14:19:53;2.40;;;2.20;;
18659;SDS011;9459;50.254;19.014;2022-08-01T14:22:23;2.33;;;2.10;;
18659;SDS011;9459;50.254;19.014;2022-08-01T14:24:52;2.70;;;2.10;;
18659;SDS011;9459;50.254;19.014;2022-08-01T14:27:27;5.15;;;2.65;;
18659;SDS011;9459;50.254;19.014;2022-08-01T14:29:58;2.50;;;2.30;;
18659;SDS011;9459;50.254;19.014;2022-08-01T14:32:29;2.40;;;1.95;;
18659;SDS011;9459;50.254;19.014;2022-08-01T14:35:00;3.65;;;2.67;;
18659;SDS011;9459;50.254;19.014;2022-08-01T14:37:28;3.63;;;2.40;;
18659;SDS011;9459;50.254;19.014;2022-08-01T14:40:03;3.78;;;2.53;;
18659;SDS011;9459;50.254;19.014;2022-08-01T14:42:36;4.38;;;2.50;;
18659;SDS011;9459;50.254;19.014;2022-08-01T14:45:07;4.82;;;2.95;;
18659;SDS011;9459;50.254;19.014;2022-08-01T14:47:36;5.30;;;2.80;;
18659;SDS011;9459;50.254;19.014;2022-08-01T14:50:05;4.18;;;2.78;;
18659;SDS011;9459;50.254;19.014;2022-08-01T14:52:35;4.13;;;2.58;;
18659;SDS011;9459;50.254;19.014;2022-08-01T14:55:04;4.47;;;2.85;;
18659;SDS011;9459;50.254;19.014;2022-08-01T14:57:34;3.83;;;3.00;;
18659;SDS011;9459;50.254;19.014;2022-08-01T15:00:03;4.82;;;3.45;;
18659;SDS011;9459;50.254;19.014;2022-08-01T15:02:34;6.32;;;3.08;;
18659;SDS011;9459;50.254;19.014;2022-08-01T15:05:03;3.80;;;2.67;;
18659;SDS011;9459;50.254;19.014;2022-08-01T15:07:32;6.05;;;2.90;;
18659;SDS011;9459;50.254;19.014;2022-08-01T15:10:06;3.70;;;3.00;;
18659;SDS011;9459;50.254;19.014;2022-08-01T15:12:34;2.92;;;2.58;;
18659;SDS011;9459;50.254;19.014;2022-08-01T15:15:15;3.28;;;2.85;;
18659;SDS011;9459;50.254;19.014;2022-08-01T15:17:45;4.57;;;3.08;;
18659;SDS011;9459;50.254;19.014;2022-08-01T15:20:13;3.50;;;2.70;;
18659;SDS011;9459;50.254;19.014;2022-08-01T15:22:42;3.80;;;2.75;;
18659;SDS011;9459;50.254;19.014;2022-08-01T15:25:10;5.22;;;2.55;;
18659;SDS011;9459;50.254;19.014;2022-08-01T15:27:38;3.90;;;2.70;;
18659;SDS011;9459;50.254;19.014;2022-08-01T15:30:07;2.63;;;2.03;;
18659;SDS011;9459;50.254;19.014;2022-08-01T15:32:36;4.97;;;2.78;;
18659;SDS011;9459;50.254;19.014;2022-08-01T15:35:06;5.82;;;2.90;;
18659;SDS011;9459;50.254;19.014;2022-08-01T15:37:37;3.00;;;2.58;;
18659;SDS011;9459;50.254;19.014;2022-08-01T15:40:09;5.43;;;2.40;;
18659;SDS011;9459;50.254;19.014;2022-08-01T15:42:38;3.65;;;2.50;;